AirNav   Air Wisconsin Up To $57,000 Bonus
 
 1137 users online  

KNCY Naval Weapons Station Helipad
Yorktown, Virginia, USA

GOING TO YORKTOWN?


FAA INFORMATION EFFECTIVE 18 JULY 2019

Location

FAA Identifier: NCY
Lat/Long: 37-16-04.5210N / 076-34-23.8300W
37-16.075350N / 076-34.397167W
37.2679225 / -76.5732861
(estimated)
Elevation: 33 ft. / 10 m (estimated)
Variation: 09W (1985)
From city: 3 miles NW of YORKTOWN, VA
Time zone: UTC -4 (UTC -5 during Standard Time)
Zip code: 23691

Heliport Operations

Heliport use: Private use. Permission required prior to landing
Activation date: 12/1974
Control tower: no
ARTCC: WASHINGTON CENTER
FSS: LEESBURG FLIGHT SERVICE STATION
Attendance: IREG
Wind indicator: no
Segmented circle: no

Heliport Communications

WX AWOS-3 at JGG (7 nm W): 120.625 (757-220-8810)
WX ASOS at PHF (9 nm SE): PHONE 757-874-3682
WX AWOS-3 at FYJ (18 nm NW): 132.825 (804-785-2307)

Nearby radio navigation aids

VOR radial/distance  VOR name  Freq  Var
HCMr156/12.7HARCUM VORTAC108.8007W
HPWr104/26.2HOPEWELL VORTAC112.0006W
CCVr270/27.9CAPE CHARLES VORTAC112.2010W
ORFr329/28.8NORFOLK VORTAC116.9007W
RICr121/38.3RICHMOND VOR/DME114.1009W
FKNr041/39.3FRANKLIN VORTAC110.6009W

 
NDB name  Hdg/Dist  Freq  Var  ID
WAKEFIELD061/26.727411WAKQ .- -.- --.-

Heliport Services

Airframe service: NONE
Powerplant service: NONE

Runway Information

Helipad H1

Dimensions: 100 x 100 ft. / 30 x 30 m
Surface: concrete
Latitude: 37-16.075350N
Longitude: 076-34.397167W
Elevation: 33.0 ft.
Traffic pattern: leftleft

Heliport Ownership and Management from official FAA records

Ownership: U.S. Navy
Owner: NAVAL WEAPONS STN.
YORKTOWN, VA 23691
Manager: JERRY B. GRIFFIN
NAVAL WEAPONS STN
YORKTOWN, VA 23691
Phone 757-887-4426

Additional Remarks

CTC AIRPORT ADVISORY 236.2/344.4.
FOR CD CTC NORFOLK APCH AT 757-464-0757.

Instrument Procedures

There are no published instrument procedures at KNCY.

Some nearby airports with instrument procedures:

W94 - Camp Peary Landing Strip Airport (4 nm NW)
KJGG - Williamsburg-Jamestown Airport (7 nm W)
KFAF - Felker Army Airfield (8 nm S)
KPHF - Newport News/Williamsburg International Airport (9 nm SE)
KLFI - Langley Air Force Base (15 nm SE)
KFYJ - Middle Peninsula Regional Airport (18 nm NW)
 
Loc | Ops | Rwys | IFR | FBO | Links
Com | Nav | Svcs | Stats | Notes
Area around KNCY (Naval Weapons Station Helipad)
 
Road maps at: MapQuest Bing Google
 
Aerial photo
No photo
 
Sectional chart

 
Airport distance calculator
Flying to Naval Weapons Station Helipad? Find the distance to fly.

From to KNCY

Sunrise and sunset
Times for 21-Jul-2019
 Local
(UTC-4)
 Zulu
(UTC)
Morning civil twilight05:3309:33
Sunrise06:0310:03
Sunset20:2200:22
Evening civil twilight20:5200:52

Current date and time
Zulu (UTC)  21-Jul-2019 22:30:32
Local (UTC-4)  21-Jul-2019 18:30:32
 
METAR
KJGG 
7nm W 
212215Z AUTO 29004KT 10SM CLR 36/26 A2988 RMK AO1
KPHF 
9nm SE 
212154Z 25012KT 10SM CLR 35/24 A2988 RMK AO2 SLP118 T03500239
KFAF 
9nm S 
212156Z AUTO 24007KT 10SM FEW220 33/25 A2986 RMK AO2 SLP115 T03330250 $
KLFI 
16nm SE 
212156Z 28007KT 10SM FEW045 SCT200 35/26 A2988 RMK AO2A SLP125 T03520256 $
KFYJ 
18nm NW 
212215Z AUTO 24006KT 10SM CLR 34/26 A2988 RMK AO1 T03350256
TAF
KPHF 
9nm SE 
211720Z 2118/2218 22008KT P6SM SCT050 FM221000 22007KT P6SM SKC
KLFI 
16nm SE 
211700Z 2117/2223 26005KT 9999 FEW045 QNH2994INS BECMG 2204/2205 22010KT 9999 FEW050 QNH2990INS BECMG 2214/2215 23015G20KT 9999 FEW065 QNH2990INS BECMG 2220/2221 22013KT 9999 SCT065 QNH2981INS TX36/2121Z TN28/2209Z
NOTAMs
Click for the latest NOTAMs
NOTAMs are issued by the DoD/FAA and will open in a separate window not controlled by AirNav.

 

 
 

Would you like to see your business listed on this page?

 If your business provides an interesting product or service to pilots, flight crews, aircraft, or users of the Naval Weapons Station Helipad, you should consider listing it here.  To start the listing process, click on the button below
 
Add a business
 

Other Pages about Naval Weapons Station Helipad

Update a link
 
Copyright © AirNav, LLC. All rights reserved. Privacy Policy  Contact